createdAt,value
2018-05-31T00:00:50.390Z,5.43
2018-05-31T00:03:18.045Z,4.77
2018-05-31T00:05:45.607Z,4.77
2018-05-31T00:08:13.224Z,6.03
2018-05-31T00:10:40.750Z,9.00
2018-05-31T00:13:08.262Z,3.97
2018-05-31T00:15:35.784Z,6.17
2018-05-31T00:18:03.313Z,6.40
2018-05-31T00:20:30.844Z,6.53
2018-05-31T00:22:58.375Z,6.00
2018-05-31T00:25:25.887Z,5.47
2018-05-31T00:27:53.417Z,6.33
2018-05-31T00:30:20.933Z,4.97
2018-05-31T00:32:48.439Z,5.60
2018-05-31T00:35:15.949Z,6.10
2018-05-31T00:37:43.484Z,4.10
2018-05-31T00:40:10.998Z,7.77
2018-05-31T00:42:38.527Z,6.00
2018-05-31T00:45:06.055Z,6.13
2018-05-31T00:47:33.589Z,4.03
2018-05-31T00:50:01.133Z,7.83
2018-05-31T00:52:28.645Z,6.53
2018-05-31T00:54:56.155Z,9.70
2018-05-31T00:57:23.710Z,4.83
2018-05-31T00:59:51.219Z,7.10
2018-05-31T01:02:18.739Z,4.00
2018-05-31T01:04:46.249Z,6.20
2018-05-31T01:07:13.780Z,3.77
2018-05-31T01:09:41.317Z,6.23
2018-05-31T01:12:08.828Z,4.97
2018-05-31T01:14:36.368Z,6.27
2018-05-31T01:17:03.915Z,6.20
2018-05-31T01:19:31.434Z,6.70
2018-05-31T01:21:58.950Z,8.60
2018-05-31T01:24:26.477Z,9.63
2018-05-31T01:26:54.017Z,5.60
2018-05-31T01:29:21.541Z,5.73
2018-05-31T01:31:49.060Z,5.57
2018-05-31T01:34:16.585Z,7.03
2018-05-31T01:36:44.083Z,3.70
2018-05-31T01:39:17.548Z,7.07
2018-05-31T01:41:45.057Z,10.03
2018-05-31T01:44:12.579Z,6.13
2018-05-31T01:46:40.113Z,8.93
2018-05-31T01:49:07.633Z,4.93
2018-05-31T01:51:35.227Z,8.47
2018-05-31T01:54:02.761Z,6.53
2018-05-31T01:56:30.283Z,8.77
2018-05-31T01:58:57.801Z,7.77
2018-05-31T02:01:25.322Z,10.53
2018-05-31T02:03:52.821Z,7.70
2018-05-31T02:06:20.345Z,6.63
2018-05-31T02:08:47.858Z,8.27
2018-05-31T02:11:15.391Z,10.23
2018-05-31T02:13:42.959Z,7.33
2018-05-31T02:16:10.526Z,6.80
2018-05-31T02:18:38.049Z,6.30
2018-05-31T02:21:05.563Z,8.07
2018-05-31T02:23:33.086Z,8.30
2018-05-31T02:26:00.613Z,7.27
2018-05-31T02:28:28.127Z,7.73
2018-05-31T02:30:55.661Z,8.97
2018-05-31T02:33:23.187Z,6.83
2018-05-31T02:35:50.721Z,7.70
2018-05-31T02:38:18.304Z,8.00
2018-05-31T02:40:45.927Z,5.97
2018-05-31T02:43:14.395Z,8.47
2018-05-31T02:45:41.919Z,6.90
2018-05-31T02:48:09.444Z,8.60
2018-05-31T02:50:36.951Z,8.37
2018-05-31T02:53:04.556Z,9.63
2018-05-31T02:55:32.095Z,7.63
2018-05-31T02:57:59.623Z,9.23
2018-05-31T03:00:27.191Z,8.13
2018-05-31T03:02:54.763Z,10.10
2018-05-31T03:05:22.313Z,9.57
2018-05-31T03:07:49.834Z,8.53
2018-05-31T03:10:17.359Z,8.03
2018-05-31T03:12:44.869Z,8.57
2018-05-31T03:15:12.453Z,10.63
2018-05-31T03:17:39.960Z,8.10
2018-05-31T03:20:07.484Z,8.50
2018-05-31T03:22:35.002Z,10.17
2018-05-31T03:25:02.518Z,23.03
2018-05-31T03:27:30.040Z,16.83
2018-05-31T03:29:57.573Z,8.90
2018-05-31T03:32:25.155Z,6.77
2018-05-31T03:34:52.670Z,8.93
2018-05-31T03:37:20.190Z,13.07
2018-05-31T03:39:47.720Z,12.33
2018-05-31T03:42:15.262Z,8.73
2018-05-31T03:44:42.792Z,12.80
2018-05-31T03:47:11.509Z,7.67
2018-05-31T03:49:39.059Z,6.60
2018-05-31T03:52:06.582Z,10.30
2018-05-31T03:54:34.108Z,7.87
2018-05-31T03:57:01.634Z,10.90
2018-05-31T03:59:29.200Z,9.30
2018-05-31T04:01:56.727Z,8.53
2018-05-31T04:04:24.294Z,11.67
2018-05-31T04:06:51.817Z,9.33
2018-05-31T04:09:19.325Z,12.27
2018-05-31T04:11:46.871Z,12.07
2018-05-31T04:14:14.402Z,11.47
2018-05-31T04:16:41.956Z,10.30
2018-05-31T04:19:09.486Z,11.00
2018-05-31T04:21:37.024Z,11.43
2018-05-31T04:24:04.583Z,12.43
2018-05-31T04:26:32.115Z,14.77
2018-05-31T04:28:59.701Z,16.83
2018-05-31T04:31:27.185Z,14.77
2018-05-31T04:33:54.715Z,15.63
2018-05-31T04:36:22.238Z,9.97
2018-05-31T04:38:49.796Z,10.17
2018-05-31T04:41:17.388Z,11.50
2018-05-31T04:43:44.915Z,8.97
2018-05-31T04:46:12.479Z,11.23
2018-05-31T04:48:40.025Z,7.60
2018-05-31T04:51:07.556Z,10.13
2018-05-31T04:53:35.414Z,10.73
2018-05-31T04:56:02.947Z,14.03
2018-05-31T04:58:30.500Z,7.87
2018-05-31T05:00:58.080Z,11.07
2018-05-31T05:03:25.688Z,14.40
2018-05-31T05:05:53.215Z,13.03
2018-05-31T05:08:20.760Z,10.40
2018-05-31T05:10:48.287Z,7.30
2018-05-31T05:13:15.832Z,14.77
2018-05-31T05:15:43.359Z,9.57
2018-05-31T05:18:10.907Z,10.00
2018-05-31T05:20:38.453Z,11.97
2018-05-31T05:23:06.000Z,14.57
2018-05-31T05:25:33.535Z,9.87
2018-05-31T05:28:01.068Z,10.33
2018-05-31T05:30:28.608Z,12.13
2018-05-31T05:32:56.132Z,11.47
2018-05-31T05:35:23.687Z,10.47
2018-05-31T05:37:51.213Z,9.53
2018-05-31T05:40:18.736Z,10.50
2018-05-31T05:42:46.255Z,9.07
2018-05-31T05:45:13.783Z,10.97
2018-05-31T05:47:41.399Z,15.80
2018-05-31T05:50:08.955Z,11.87
2018-05-31T05:52:36.477Z,12.97
2018-05-31T05:55:04.014Z,10.40
2018-05-31T05:57:31.618Z,8.33
2018-05-31T05:59:59.146Z,13.17
2018-05-31T06:02:26.757Z,11.03
2018-05-31T06:04:54.272Z,13.43
2018-05-31T06:07:21.788Z,10.67
2018-05-31T06:09:49.331Z,15.30
2018-05-31T06:12:16.895Z,6.93
2018-05-31T06:14:44.468Z,11.50
2018-05-31T06:17:11.992Z,14.20
2018-05-31T06:19:39.646Z,17.10
2018-05-31T06:22:07.192Z,11.80
2018-05-31T06:24:34.760Z,9.97
2018-05-31T06:27:02.602Z,8.67
2018-05-31T06:29:30.167Z,17.13
2018-05-31T06:31:57.793Z,8.97
2018-05-31T06:34:25.354Z,12.23
2018-05-31T06:36:52.867Z,9.43
2018-05-31T06:39:20.370Z,8.83
2018-05-31T06:41:47.925Z,12.60
2018-05-31T06:44:15.453Z,10.47
2018-05-31T06:46:42.950Z,11.53
2018-05-31T06:49:10.484Z,14.70
2018-05-31T06:51:38.045Z,10.87
2018-05-31T06:54:05.580Z,9.63
2018-05-31T06:56:33.076Z,6.83
2018-05-31T06:59:00.604Z,9.27
2018-05-31T07:01:28.151Z,8.07
2018-05-31T07:03:55.649Z,7.57
2018-05-31T07:06:23.167Z,10.57
2018-05-31T07:08:50.690Z,9.77
2018-05-31T07:11:18.197Z,8.17
2018-05-31T07:13:45.708Z,10.20
2018-05-31T07:16:13.263Z,8.63
2018-05-31T07:18:40.814Z,12.53
2018-05-31T07:21:08.379Z,13.17
2018-05-31T07:23:35.972Z,8.97
2018-05-31T07:26:03.495Z,13.70
2018-05-31T07:28:31.056Z,6.97
2018-05-31T07:30:58.611Z,9.23
2018-05-31T07:33:26.191Z,15.07
2018-05-31T07:35:53.687Z,8.63
2018-05-31T07:38:21.217Z,8.07
2018-05-31T07:40:48.772Z,6.37
2018-05-31T07:43:16.369Z,6.60
2018-05-31T07:45:43.937Z,9.23
2018-05-31T07:48:11.447Z,8.30
2018-05-31T07:50:38.997Z,7.53
2018-05-31T07:53:06.595Z,6.93
2018-05-31T07:55:34.137Z,9.10
2018-05-31T07:58:01.767Z,6.53
2018-05-31T08:00:31.139Z,7.57
2018-05-31T08:02:58.666Z,10.23
2018-05-31T08:05:26.305Z,7.83
2018-05-31T08:07:53.862Z,3.73
2018-05-31T08:10:21.430Z,5.03
2018-05-31T08:12:48.963Z,10.73
2018-05-31T08:15:16.463Z,13.37
2018-05-31T08:17:44.758Z,4.40
2018-05-31T08:20:12.300Z,7.93
2018-05-31T08:22:39.835Z,5.47
2018-05-31T08:25:07.418Z,4.67
2018-05-31T08:27:34.929Z,8.60
2018-05-31T08:30:02.450Z,7.27
2018-05-31T08:32:29.976Z,7.90
2018-05-31T08:34:57.682Z,10.47
2018-05-31T08:37:25.246Z,4.87
2018-05-31T08:39:52.861Z,3.97
2018-05-31T08:42:20.358Z,5.80
2018-05-31T08:44:47.874Z,8.50
2018-05-31T08:47:15.409Z,4.33
2018-05-31T08:49:42.902Z,4.77
2018-05-31T08:52:10.436Z,13.93
2018-05-31T08:54:37.949Z,6.93
2018-05-31T08:57:05.444Z,9.47
2018-05-31T08:59:32.944Z,3.00
2018-05-31T09:02:00.464Z,9.23
2018-05-31T09:04:27.996Z,7.73
2018-05-31T09:06:55.496Z,7.83
2018-05-31T09:09:23.013Z,2.70
2018-05-31T09:11:50.534Z,4.87
2018-05-31T09:14:18.040Z,4.17
2018-05-31T09:16:45.539Z,2.53
2018-05-31T09:19:13.051Z,2.00
2018-05-31T09:21:40.543Z,3.37
2018-05-31T09:24:08.032Z,3.60
2018-05-31T09:26:35.549Z,3.40
2018-05-31T09:29:03.087Z,6.80
2018-05-31T09:31:30.664Z,2.47
2018-05-31T09:33:58.160Z,4.23
2018-05-31T09:36:25.731Z,3.33
2018-05-31T09:38:53.279Z,9.50
2018-05-31T09:41:21.393Z,4.97
2018-05-31T09:43:48.932Z,3.10
2018-05-31T09:46:16.508Z,8.60
2018-05-31T09:48:44.956Z,3.97
2018-05-31T09:51:12.459Z,3.80
2018-05-31T09:53:39.971Z,4.93
2018-05-31T09:56:07.492Z,4.67
2018-05-31T09:58:35.025Z,4.33
2018-05-31T10:01:02.526Z,6.50
2018-05-31T10:03:30.026Z,5.63
2018-05-31T10:05:57.584Z,3.20
2018-05-31T10:08:25.102Z,4.05
2018-05-31T10:10:52.625Z,3.97
2018-05-31T10:13:20.185Z,4.13
2018-05-31T10:15:47.679Z,2.58
2018-05-31T10:18:15.198Z,4.03
2018-05-31T10:20:42.739Z,1.67
2018-05-31T10:23:10.253Z,5.70
2018-05-31T10:25:37.761Z,2.60
2018-05-31T10:28:05.331Z,2.28
2018-05-31T10:30:32.872Z,3.22
2018-05-31T10:33:00.384Z,6.30
2018-05-31T10:35:27.896Z,2.20
2018-05-31T10:37:55.437Z,5.70
2018-05-31T10:40:22.953Z,3.75
2018-05-31T10:42:50.477Z,4.62
2018-05-31T10:45:18.003Z,4.82
2018-05-31T10:47:45.543Z,8.63
2018-05-31T10:50:13.051Z,5.12
2018-05-31T10:52:40.563Z,2.85
2018-05-31T10:55:08.091Z,19.12
2018-05-31T10:57:35.612Z,4.95
2018-05-31T11:00:04.419Z,3.85
2018-05-31T11:02:31.938Z,3.83
2018-05-31T11:04:59.450Z,4.47
2018-05-31T11:07:26.965Z,5.18
2018-05-31T11:09:54.471Z,2.83
2018-05-31T11:12:21.997Z,3.40
2018-05-31T11:14:49.509Z,2.75
2018-05-31T11:17:17.032Z,3.00
2018-05-31T11:19:44.554Z,3.33
2018-05-31T11:22:12.059Z,4.43
2018-05-31T11:24:39.579Z,3.40
2018-05-31T11:27:07.119Z,3.80
2018-05-31T11:29:34.637Z,20.20
2018-05-31T11:32:02.735Z,5.18
2018-05-31T11:34:30.248Z,4.53
2018-05-31T11:36:57.750Z,5.87
2018-05-31T11:39:25.251Z,2.70
2018-05-31T11:41:53.655Z,3.92
2018-05-31T11:44:21.210Z,10.20
2018-05-31T11:46:48.729Z,4.03
2018-05-31T11:49:16.305Z,3.95
2018-05-31T11:51:44.525Z,6.12
2018-05-31T11:54:12.034Z,2.95
2018-05-31T11:56:39.549Z,6.95
2018-05-31T11:59:07.096Z,6.20
2018-05-31T12:01:34.623Z,3.50
2018-05-31T12:04:02.127Z,3.53
2018-05-31T12:06:29.644Z,11.38
2018-05-31T12:08:57.164Z,8.00
2018-05-31T12:11:24.701Z,7.18
2018-05-31T12:13:52.236Z,3.12
2018-05-31T12:16:19.797Z,6.87
2018-05-31T12:18:47.302Z,5.85
2018-05-31T12:21:14.815Z,6.18
2018-05-31T12:23:42.342Z,5.87
2018-05-31T12:26:09.840Z,4.57
2018-05-31T12:28:37.348Z,2.60
2018-05-31T12:31:04.912Z,6.12
2018-05-31T12:33:32.434Z,7.72
2018-05-31T12:35:59.931Z,4.93
2018-05-31T12:38:27.438Z,4.22
2018-05-31T12:40:54.939Z,8.32
2018-05-31T12:43:22.444Z,7.35
2018-05-31T12:45:49.937Z,5.85
2018-05-31T12:48:17.476Z,5.47
2018-05-31T12:50:45.049Z,7.18
2018-05-31T12:53:12.565Z,6.68
2018-05-31T12:55:40.088Z,5.80
2018-05-31T12:58:07.671Z,6.70
2018-05-31T13:00:35.174Z,4.22
2018-05-31T13:03:02.665Z,5.47
2018-05-31T13:05:30.200Z,5.20
2018-05-31T13:07:57.719Z,5.90
2018-05-31T13:10:25.352Z,4.62
2018-05-31T13:12:52.899Z,5.90
2018-05-31T13:15:20.518Z,5.18
2018-05-31T13:17:48.053Z,4.18
2018-05-31T13:20:15.592Z,6.12
2018-05-31T13:22:44.004Z,7.55
2018-05-31T13:25:11.558Z,4.15
2018-05-31T13:27:39.151Z,3.85
2018-05-31T13:30:06.704Z,6.93
2018-05-31T13:32:34.259Z,5.37
2018-05-31T13:35:01.797Z,2.37
2018-05-31T13:37:29.309Z,4.60
2018-05-31T13:39:56.871Z,4.03
2018-05-31T13:42:24.427Z,9.27
2018-05-31T13:44:51.962Z,3.67
2018-05-31T13:47:19.509Z,5.25
2018-05-31T13:49:59.992Z,4.68
2018-05-31T13:52:27.980Z,4.05
2018-05-31T13:54:55.480Z,4.35
2018-05-31T13:57:22.997Z,8.32
2018-05-31T13:59:50.543Z,3.85
2018-05-31T14:02:18.099Z,5.90
2018-05-31T14:04:45.623Z,7.03
2018-05-31T14:07:13.168Z,2.87
2018-05-31T14:09:40.683Z,4.20
2018-05-31T14:12:08.204Z,4.30
2018-05-31T14:14:35.740Z,8.05
2018-05-31T14:17:03.239Z,7.37
2018-05-31T14:19:30.796Z,4.50
2018-05-31T14:21:58.313Z,2.65
2018-05-31T14:24:25.838Z,2.62
2018-05-31T14:26:53.345Z,3.67
2018-05-31T14:29:20.851Z,5.25
2018-05-31T14:31:48.363Z,4.43
2018-05-31T14:34:15.884Z,3.67
2018-05-31T14:36:43.399Z,5.22
2018-05-31T14:39:10.913Z,3.60
2018-05-31T14:41:38.426Z,4.37
2018-05-31T14:44:05.946Z,3.30
2018-05-31T14:46:33.474Z,3.78
2018-05-31T14:49:00.988Z,5.60
2018-05-31T14:51:28.570Z,4.97
2018-05-31T14:53:56.088Z,1.92
2018-05-31T14:56:23.591Z,3.97
2018-05-31T14:58:51.119Z,6.50
2018-05-31T15:01:18.624Z,3.20
2018-05-31T15:03:46.131Z,3.37
2018-05-31T15:06:13.626Z,5.20
2018-05-31T15:08:41.992Z,6.22
2018-05-31T15:11:09.555Z,3.87
2018-05-31T15:13:37.079Z,5.60
2018-05-31T15:16:04.603Z,5.45
2018-05-31T15:18:32.127Z,5.60
2018-05-31T15:20:59.680Z,2.45
2018-05-31T15:23:27.212Z,3.30
2018-05-31T15:25:54.760Z,2.90
2018-05-31T15:28:22.288Z,1.83
2018-05-31T15:30:49.827Z,2.15
2018-05-31T15:33:17.368Z,5.07
2018-05-31T15:35:44.932Z,1.50
2018-05-31T15:38:12.531Z,6.95
2018-05-31T15:40:40.039Z,3.67
2018-05-31T15:43:07.577Z,2.75
2018-05-31T15:45:35.088Z,3.95
2018-05-31T15:48:02.612Z,3.08
2018-05-31T15:50:30.131Z,2.80
2018-05-31T15:52:57.641Z,1.52
2018-05-31T15:55:25.144Z,3.80
2018-05-31T15:57:52.640Z,2.83
2018-05-31T16:00:20.208Z,2.95
2018-05-31T16:02:47.740Z,4.00
2018-05-31T16:05:15.248Z,2.28
2018-05-31T16:07:42.809Z,4.32
2018-05-31T16:10:11.173Z,4.53
2018-05-31T16:12:38.695Z,4.90
2018-05-31T16:15:06.198Z,5.60
2018-05-31T16:17:33.748Z,4.20
2018-05-31T16:20:01.322Z,3.80
2018-05-31T16:22:28.856Z,5.95
2018-05-31T16:24:56.373Z,2.30
2018-05-31T16:27:23.949Z,3.42
2018-05-31T16:29:52.220Z,8.82
2018-05-31T16:32:19.844Z,4.15
2018-05-31T16:34:47.360Z,5.18
2018-05-31T16:37:14.863Z,4.30
2018-05-31T16:39:42.398Z,4.53
2018-05-31T16:42:10.202Z,3.80
2018-05-31T16:44:37.735Z,8.95
2018-05-31T16:47:05.258Z,2.37
2018-05-31T16:49:32.818Z,4.72
2018-05-31T16:52:00.349Z,5.82
2018-05-31T16:54:27.865Z,4.53
2018-05-31T16:56:55.379Z,5.72
2018-05-31T16:59:22.884Z,5.35
2018-05-31T17:01:50.422Z,4.10
2018-05-31T17:04:17.939Z,5.03
2018-05-31T17:06:45.478Z,5.43
2018-05-31T17:09:12.998Z,9.35
2018-05-31T17:11:40.500Z,3.62
2018-05-31T17:14:08.007Z,7.05
2018-05-31T17:16:35.515Z,5.97
2018-05-31T17:19:03.120Z,4.10
2018-05-31T17:21:30.652Z,5.57
2018-05-31T17:23:58.188Z,5.82
2018-05-31T17:26:25.718Z,3.00
2018-05-31T17:28:53.225Z,7.47
2018-05-31T17:31:20.734Z,6.28
2018-05-31T17:33:48.270Z,2.20
2018-05-31T17:36:16.348Z,4.00
2018-05-31T17:38:43.914Z,4.15
2018-05-31T17:41:11.418Z,5.25
2018-05-31T17:43:38.926Z,5.90
2018-05-31T17:46:06.631Z,3.95
2018-05-31T17:48:35.142Z,5.63
2018-05-31T17:51:02.645Z,4.43
2018-05-31T17:53:30.252Z,6.90
2018-05-31T17:55:57.773Z,5.37
2018-05-31T17:58:25.276Z,8.00
2018-05-31T18:00:55.954Z,5.70
2018-05-31T18:03:23.501Z,3.53
2018-05-31T18:05:51.029Z,4.20
2018-05-31T18:08:18.540Z,5.23
2018-05-31T18:10:46.051Z,6.23
2018-05-31T18:13:13.572Z,4.70
2018-05-31T18:15:41.091Z,9.40
2018-05-31T18:18:08.676Z,7.50
2018-05-31T18:20:36.196Z,9.17
2018-05-31T18:23:03.794Z,9.87
2018-05-31T18:25:31.293Z,4.27
2018-05-31T18:27:58.839Z,10.20
2018-05-31T18:30:26.367Z,8.33
2018-05-31T18:32:53.899Z,14.33
2018-05-31T18:35:21.453Z,13.73
2018-05-31T18:37:48.959Z,14.97
2018-05-31T18:40:17.688Z,8.90
2018-05-31T18:42:45.222Z,9.60
2018-05-31T18:45:12.739Z,15.40
2018-05-31T18:47:40.310Z,20.37
2018-05-31T18:50:07.827Z,18.17
2018-05-31T18:52:35.340Z,14.00
2018-05-31T18:55:02.960Z,18.37
2018-05-31T18:57:30.588Z,15.50
2018-05-31T18:59:58.114Z,19.87
2018-05-31T19:02:25.643Z,21.07
2018-05-31T19:04:53.201Z,16.17
2018-05-31T19:07:20.739Z,18.37
2018-05-31T19:09:48.283Z,18.70
2018-05-31T19:12:15.875Z,16.50
2018-05-31T19:14:43.468Z,16.53
2018-05-31T19:17:10.995Z,13.47
2018-05-31T19:19:44.176Z,13.33
2018-05-31T19:22:11.688Z,18.33
2018-05-31T19:24:44.992Z,15.53
2018-05-31T19:27:12.543Z,10.97
2018-05-31T19:29:40.054Z,20.93
2018-05-31T19:32:07.567Z,17.03
2018-05-31T19:34:35.234Z,19.93
2018-05-31T19:37:08.182Z,16.63
2018-05-31T19:39:36.664Z,19.37
2018-05-31T19:42:04.298Z,20.13
2018-05-31T19:44:38.343Z,19.53
2018-05-31T19:47:05.861Z,19.03
2018-05-31T19:49:33.423Z,17.80
2018-05-31T19:52:08.671Z,14.17
2018-05-31T19:54:36.184Z,18.63
2018-05-31T19:57:03.718Z,11.23
2018-05-31T20:02:41.402Z,11.30
2018-05-31T20:05:10.119Z,10.87
2018-05-31T20:07:37.654Z,10.87
2018-05-31T20:10:05.241Z,11.40
2018-05-31T20:12:32.799Z,9.60
2018-05-31T20:15:00.325Z,15.27
2018-05-31T20:17:27.865Z,14.00
2018-05-31T20:19:55.424Z,10.57
2018-05-31T20:22:22.951Z,14.10
2018-05-31T20:24:50.473Z,11.30
2018-05-31T20:27:18.019Z,9.30
2018-05-31T20:29:45.660Z,12.97
2018-05-31T20:32:13.204Z,12.83
2018-05-31T20:34:40.782Z,9.20
2018-05-31T20:37:08.328Z,11.03
2018-05-31T20:39:35.954Z,9.97
2018-05-31T20:42:03.721Z,9.63
2018-05-31T20:44:31.283Z,6.03
2018-05-31T20:46:58.800Z,11.60
2018-05-31T20:49:26.303Z,7.00
2018-05-31T20:51:53.843Z,10.03
2018-05-31T20:54:21.422Z,9.37
2018-05-31T20:56:48.915Z,8.10
2018-05-31T20:59:16.478Z,5.07
2018-05-31T21:01:43.994Z,5.03
2018-05-31T21:04:11.495Z,10.40
2018-05-31T21:06:39.760Z,4.30
2018-05-31T21:09:07.265Z,5.43
2018-05-31T21:11:35.025Z,9.23
2018-05-31T21:14:02.521Z,6.47
2018-05-31T21:16:30.043Z,9.63
2018-05-31T21:18:57.563Z,9.80
2018-05-31T21:21:25.076Z,6.20
2018-05-31T21:23:52.583Z,5.57
2018-05-31T21:26:20.097Z,5.10
2018-05-31T21:28:47.630Z,9.67
2018-05-31T21:31:15.161Z,6.60
2018-05-31T21:33:42.740Z,7.50
2018-05-31T21:36:10.341Z,9.07
2018-05-31T21:38:37.933Z,5.47
2018-05-31T21:41:05.500Z,7.60
2018-05-31T21:43:33.003Z,9.17
2018-05-31T21:46:00.542Z,6.77
2018-05-31T21:48:28.477Z,9.37
2018-05-31T21:50:56.023Z,7.63
2018-05-31T21:53:23.536Z,8.63
2018-05-31T21:55:51.102Z,6.27
2018-05-31T21:58:18.656Z,9.93
2018-05-31T22:00:51.760Z,8.03
2018-05-31T22:03:19.304Z,14.10
2018-05-31T22:05:46.821Z,9.33
2018-05-31T22:08:14.339Z,8.50
2018-05-31T22:10:41.906Z,11.40
2018-05-31T22:13:09.407Z,7.30
2018-05-31T22:15:36.919Z,8.43
2018-05-31T22:18:04.444Z,6.67
2018-05-31T22:20:31.967Z,7.20
2018-05-31T22:22:59.542Z,7.83
2018-05-31T22:25:27.075Z,5.10
2018-05-31T22:27:54.578Z,8.77
2018-05-31T22:30:22.159Z,14.03
2018-05-31T22:32:49.690Z,11.87
2018-05-31T22:35:17.215Z,13.47
2018-05-31T22:37:44.767Z,10.27
2018-05-31T22:40:12.288Z,16.13
2018-05-31T22:42:39.810Z,7.67
2018-05-31T22:45:07.344Z,8.77
2018-05-31T22:47:34.953Z,8.03
2018-05-31T22:50:02.494Z,13.20
2018-05-31T22:52:30.020Z,11.17
2018-05-31T22:54:57.543Z,16.93
2018-05-31T22:57:25.116Z,14.00
2018-05-31T22:59:52.632Z,14.43
2018-05-31T23:02:20.173Z,11.00
2018-05-31T23:04:47.708Z,12.00
2018-05-31T23:07:15.251Z,10.73
2018-05-31T23:09:42.782Z,11.53
2018-05-31T23:12:10.298Z,9.30
2018-05-31T23:14:37.825Z,9.23
2018-05-31T23:17:05.340Z,11.77
